Terminal Aerodrome Forecast
Issued by NWS Paducah, KY

Home | Current Version | Previous Version | Text Only | Print | Product List | Glossary On
Versions: 1 2 3 4 5 6 7 8 9 10 11 12 13 14 15 16 17 18 19 20 21 22 23
000
FTUS43 KPAH 172320
TAFEVV
TAF
KEVV 172320Z 1800/1824 00000KT P6SM FEW080 BKN150
     FM180900 00000KT 5SM BR BKN080
     FM181400 23005KT P6SM SCT050 BKN100 PROB30 1816/1822 5SM -SHRA
      BR BKN040=

USA.gov is the U.S. government's official web portal to all federal, state and local government web resources and services.